createdAt,value
2023-03-08T00:00:12.703Z,120.41
2023-03-08T00:01:12.604Z,119.70
2023-03-08T00:02:12.437Z,122.56
2023-03-08T00:03:12.315Z,121.83
2023-03-08T00:04:12.264Z,122.78
2023-03-08T00:05:12.051Z,119.46
2023-03-08T00:06:11.920Z,122.71
2023-03-08T00:07:11.795Z,119.71
2023-03-08T00:08:11.810Z,121.68
2023-03-08T00:09:11.541Z,123.19
2023-03-08T00:10:11.430Z,121.65
2023-03-08T00:11:11.283Z,122.50
2023-03-08T00:12:11.165Z,122.04
2023-03-08T00:13:11.016Z,122.50
2023-03-08T00:14:10.881Z,122.86
2023-03-08T00:15:10.803Z,123.16
2023-03-08T00:16:10.669Z,122.37
2023-03-08T00:17:10.511Z,121.64
2023-03-08T00:18:10.375Z,123.99
2023-03-08T00:19:10.238Z,123.40
2023-03-08T00:20:10.122Z,122.22
2023-03-08T00:21:10.004Z,123.55
2023-03-08T00:22:09.866Z,124.48
2023-03-08T00:23:09.725Z,123.11
2023-03-08T00:24:09.613Z,122.78
2023-03-08T00:25:09.482Z,123.35
2023-03-08T00:26:09.345Z,126.30
2023-03-08T00:27:09.204Z,121.57
2023-03-08T00:28:09.123Z,122.82
2023-03-08T00:29:08.985Z,123.27
2023-03-08T00:30:08.832Z,121.82
2023-03-08T00:31:08.728Z,124.58
2023-03-08T00:32:08.579Z,123.80
2023-03-08T00:33:08.438Z,123.96
2023-03-08T00:34:08.289Z,122.29
2023-03-08T00:35:08.207Z,123.93
2023-03-08T00:36:08.028Z,125.03
2023-03-08T00:37:07.896Z,123.44
2023-03-08T00:38:07.786Z,123.53
2023-03-08T00:39:07.647Z,124.63
2023-03-08T00:40:07.518Z,123.68
2023-03-08T00:41:07.402Z,125.34
2023-03-08T00:42:07.271Z,125.71
2023-03-08T00:43:07.144Z,126.25
2023-03-08T00:44:07.014Z,126.42
2023-03-08T00:45:06.885Z,126.76
2023-03-08T00:46:06.778Z,124.60
2023-03-08T00:47:06.621Z,123.99
2023-03-08T00:48:06.503Z,125.48
2023-03-08T00:49:06.382Z,125.32
2023-03-08T00:50:06.233Z,126.56
2023-03-08T00:51:06.104Z,124.47
2023-03-08T00:52:05.975Z,125.15
2023-03-08T00:53:05.840Z,121.25
2023-03-08T00:54:05.710Z,123.96
2023-03-08T00:55:05.563Z,121.36
2023-03-08T00:56:05.436Z,125.64
2023-03-08T00:57:05.303Z,124.99
2023-03-08T00:58:05.158Z,124.65
2023-03-08T00:59:05.026Z,126.27
2023-03-08T01:00:04.906Z,127.17
2023-03-08T01:01:04.826Z,120.66
2023-03-08T01:02:04.664Z,124.94
2023-03-08T01:03:04.519Z,126.81
2023-03-08T01:04:04.518Z,123.44
2023-03-08T01:05:04.306Z,126.76
2023-03-08T01:06:04.219Z,126.35
2023-03-08T01:07:04.065Z,129.24
2023-03-08T01:08:03.879Z,125.04
2023-03-08T01:09:03.751Z,126.31
2023-03-08T01:10:03.626Z,126.11
2023-03-08T01:11:03.490Z,128.01
2023-03-08T01:12:03.348Z,126.16
2023-03-08T01:13:03.247Z,127.18
2023-03-08T01:14:03.089Z,127.47
2023-03-08T01:15:02.967Z,127.28
2023-03-08T01:16:02.861Z,127.67
2023-03-08T01:17:02.702Z,128.41
2023-03-08T01:18:02.613Z,125.69
2023-03-08T01:19:02.436Z,126.82
2023-03-08T01:20:02.320Z,123.82
2023-03-08T01:21:02.188Z,126.19
2023-03-08T01:22:02.058Z,122.95
2023-03-08T01:23:01.926Z,124.46
2023-03-08T01:24:01.792Z,126.33
2023-03-08T01:25:01.668Z,126.24
2023-03-08T01:26:01.581Z,126.87
2023-03-08T01:27:01.410Z,125.28
2023-03-08T01:28:01.285Z,123.87
2023-03-08T01:29:01.160Z,127.85
2023-03-08T01:30:01.052Z,122.82
2023-03-08T01:31:00.919Z,127.99
2023-03-08T01:32:00.779Z,126.44
2023-03-08T01:33:00.644Z,126.18
2023-03-08T01:34:00.525Z,127.06
2023-03-08T01:35:00.414Z,128.36
2023-03-08T01:36:00.338Z,130.77
2023-03-08T01:37:00.161Z,128.23
2023-03-08T01:38:00.030Z,126.54
2023-03-08T01:38:59.880Z,126.96
2023-03-08T01:39:59.758Z,126.39
2023-03-08T01:40:59.662Z,126.50
2023-03-08T01:41:59.489Z,125.69
2023-03-08T01:42:59.364Z,125.95
2023-03-08T01:43:59.243Z,125.90
2023-03-08T01:44:59.131Z,127.50
2023-03-08T01:45:58.990Z,127.52
2023-03-08T01:46:58.861Z,127.63
2023-03-08T01:47:58.738Z,129.67
2023-03-08T01:48:58.618Z,125.59
2023-03-08T01:49:58.476Z,127.96
2023-03-08T01:50:58.361Z,128.70
2023-03-08T01:51:58.243Z,126.61
2023-03-08T01:52:58.096Z,127.19
2023-03-08T01:53:57.973Z,125.69
2023-03-08T01:54:57.893Z,126.87
2023-03-08T01:55:57.737Z,127.26
2023-03-08T01:56:57.611Z,128.24
2023-03-08T01:57:57.474Z,128.37
2023-03-08T01:58:57.350Z,129.32
2023-03-08T01:59:57.213Z,124.17
2023-03-08T02:00:57.095Z,128.12
2023-03-08T02:01:56.974Z,127.11
2023-03-08T02:02:56.839Z,127.09
2023-03-08T02:03:56.709Z,128.93
2023-03-08T02:04:56.572Z,128.59
2023-03-08T02:05:56.459Z,129.00
2023-03-08T02:06:56.336Z,129.00
2023-03-08T02:07:56.207Z,129.10
2023-03-08T02:08:56.064Z,128.55
2023-03-08T02:09:55.958Z,129.19
2023-03-08T02:10:55.814Z,129.55
2023-03-08T02:11:55.689Z,130.09
2023-03-08T02:12:55.570Z,130.59
2023-03-08T02:13:55.438Z,128.01
2023-03-08T02:14:55.320Z,128.10
2023-03-08T02:15:55.181Z,126.20
2023-03-08T02:16:55.070Z,129.85
2023-03-08T02:17:54.921Z,126.90
2023-03-08T02:18:54.797Z,127.72
2023-03-08T02:19:54.660Z,126.58
2023-03-08T02:20:54.558Z,127.26
2023-03-08T02:21:54.496Z,125.83
2023-03-08T02:22:54.271Z,129.25
2023-03-08T02:23:54.138Z,123.31
2023-03-08T02:24:54.005Z,129.01
2023-03-08T02:25:53.876Z,126.69
2023-03-08T02:26:53.780Z,127.37
2023-03-08T02:27:53.647Z,127.36
2023-03-08T02:28:53.502Z,127.53
2023-03-08T02:29:53.370Z,123.97
2023-03-08T02:30:53.246Z,129.13
2023-03-08T02:31:53.107Z,130.19
2023-03-08T02:32:53.243Z,127.08
2023-03-08T02:33:52.866Z,125.38
2023-03-08T02:34:52.723Z,127.53
2023-03-08T02:35:52.642Z,122.78
2023-03-08T02:36:52.466Z,126.56
2023-03-08T02:37:52.342Z,126.53
2023-03-08T02:38:52.195Z,125.16
2023-03-08T02:39:52.065Z,125.65
2023-03-08T02:40:51.960Z,124.00
2023-03-08T02:41:51.812Z,123.39
2023-03-08T02:42:53.351Z,128.07
2023-03-08T02:43:51.545Z,126.91
2023-03-08T02:44:51.412Z,128.49
2023-03-08T02:45:51.280Z,123.31
2023-03-08T02:46:51.218Z,126.89
2023-03-08T02:47:51.050Z,127.04
2023-03-08T02:48:50.880Z,125.36
2023-03-08T02:49:50.751Z,125.12
2023-03-08T02:50:50.632Z,125.96
2023-03-08T02:51:50.494Z,125.73
2023-03-08T02:52:50.368Z,128.18
2023-03-08T02:53:50.234Z,126.64
2023-03-08T02:54:50.096Z,125.32
2023-03-08T02:55:49.960Z,125.58
2023-03-08T02:56:49.840Z,125.60
2023-03-08T02:57:49.705Z,126.43
2023-03-08T02:58:49.570Z,126.79
2023-03-08T02:59:49.461Z,127.05
2023-03-08T03:00:49.331Z,124.47
2023-03-08T03:01:49.187Z,124.30
2023-03-08T03:02:49.066Z,124.82
2023-03-08T03:03:48.968Z,124.33
2023-03-08T03:04:48.788Z,128.39
2023-03-08T03:05:48.650Z,128.01
2023-03-08T03:06:48.526Z,126.11
2023-03-08T03:07:48.409Z,125.89
2023-03-08T03:08:48.261Z,125.72
2023-03-08T03:09:48.116Z,123.65
2023-03-08T03:10:48.008Z,125.50
2023-03-08T03:11:47.854Z,125.50
2023-03-08T03:12:47.768Z,121.75
2023-03-08T03:13:47.612Z,127.88
2023-03-08T03:14:47.473Z,125.58
2023-03-08T03:15:47.362Z,125.98
2023-03-08T03:16:47.175Z,126.44
2023-03-08T03:17:47.071Z,125.18
2023-03-08T03:18:46.910Z,124.73
2023-03-08T03:19:46.763Z,126.01
2023-03-08T03:20:46.622Z,125.34
2023-03-08T03:21:46.484Z,124.37
2023-03-08T03:22:46.356Z,125.12
2023-03-08T03:23:46.225Z,126.19
2023-03-08T03:24:46.087Z,126.81
2023-03-08T03:25:45.977Z,125.19
2023-03-08T03:26:45.816Z,124.68
2023-03-08T03:27:45.685Z,126.28
2023-03-08T03:28:45.550Z,125.74
2023-03-08T03:29:45.427Z,126.91
2023-03-08T03:30:45.337Z,127.37
2023-03-08T03:31:45.159Z,123.12
2023-03-08T03:32:45.179Z,126.67
2023-03-08T03:33:44.889Z,124.34
2023-03-08T03:34:44.749Z,125.83
2023-03-08T03:35:44.676Z,124.71
2023-03-08T03:36:44.496Z,128.60
2023-03-08T03:37:44.363Z,123.92
2023-03-08T03:38:44.223Z,126.68
2023-03-08T03:39:44.139Z,126.31
2023-03-08T03:40:43.955Z,126.64
2023-03-08T03:41:43.817Z,125.40
2023-03-08T03:42:43.700Z,124.88
2023-03-08T03:43:43.557Z,125.71
2023-03-08T03:44:43.423Z,126.84
2023-03-08T03:45:43.293Z,124.91
2023-03-08T03:46:43.264Z,118.60
2023-03-08T03:47:43.037Z,113.24
2023-03-08T03:48:42.915Z,112.17
2023-03-08T03:49:42.778Z,114.33
2023-03-08T03:50:42.649Z,120.08
2023-03-08T03:51:42.515Z,113.70
2023-03-08T03:52:42.377Z,104.27
2023-03-08T03:53:42.243Z,96.69
2023-03-08T03:54:42.110Z,99.38
2023-03-08T03:55:41.981Z,98.16
2023-03-08T03:56:41.854Z,104.43
2023-03-08T03:57:41.710Z,101.40
2023-03-08T03:58:41.609Z,95.75
2023-03-08T03:59:41.443Z,89.71
2023-03-08T04:00:41.392Z,90.91
2023-03-08T04:01:41.187Z,99.85
2023-03-08T04:02:41.077Z,97.45
2023-03-08T04:03:40.979Z,90.55
2023-03-08T04:04:40.797Z,90.55
2023-03-08T04:05:40.664Z,86.82
2023-03-08T04:06:40.536Z,90.65
2023-03-08T04:07:40.402Z,91.07
2023-03-08T04:08:40.288Z,91.44
2023-03-08T04:09:40.150Z,88.24
2023-03-08T04:10:40.023Z,83.85
2023-03-08T04:11:39.887Z,83.34
2023-03-08T04:12:39.774Z,80.95
2023-03-08T04:13:39.689Z,87.39
2023-03-08T04:14:39.527Z,90.49
2023-03-08T04:15:39.387Z,78.33
2023-03-08T04:16:39.299Z,76.49
2023-03-08T04:17:39.151Z,76.11
2023-03-08T04:18:39.014Z,76.11
2023-03-08T04:19:38.879Z,78.72
2023-03-08T04:20:38.747Z,85.93
2023-03-08T04:21:38.629Z,75.01
2023-03-08T04:22:38.484Z,72.08
2023-03-08T04:23:38.408Z,68.06
2023-03-08T04:24:38.238Z,72.04
2023-03-08T04:25:38.100Z,65.65
2023-03-08T04:26:38.007Z,75.52
2023-03-08T04:27:37.832Z,65.05
2023-03-08T04:28:37.712Z,62.80
2023-03-08T04:29:37.589Z,61.39
2023-03-08T04:30:37.455Z,63.34
2023-03-08T04:31:37.454Z,73.07
2023-03-08T04:32:37.256Z,71.39
2023-03-08T04:33:37.071Z,60.69
2023-03-08T04:34:36.959Z,59.79
2023-03-08T04:35:36.839Z,60.95
2023-03-08T04:36:36.705Z,62.48
2023-03-08T04:37:36.544Z,68.26
2023-03-08T04:38:36.421Z,63.93
2023-03-08T04:39:36.314Z,57.89
2023-03-08T04:40:36.151Z,59.08
2023-03-08T04:41:36.033Z,59.40
2023-03-08T04:42:35.902Z,60.39
2023-03-08T04:43:35.751Z,63.05
2023-03-08T04:44:35.658Z,61.61
2023-03-08T04:45:35.505Z,58.87
2023-03-08T04:46:35.388Z,61.83
2023-03-08T04:47:35.227Z,61.51
2023-03-08T04:48:35.100Z,68.34
2023-03-08T04:49:34.989Z,64.23
2023-03-08T04:50:34.836Z,53.79
2023-03-08T04:51:34.693Z,61.60
2023-03-08T04:52:34.571Z,60.20
2023-03-08T04:53:34.423Z,63.70
2023-03-08T04:54:34.290Z,61.82
2023-03-08T04:55:34.149Z,61.54
2023-03-08T04:56:34.020Z,59.01
2023-03-08T04:57:33.882Z,60.45
2023-03-08T04:58:33.757Z,61.07
2023-03-08T04:59:33.613Z,64.89
2023-03-08T05:00:33.490Z,62.29
2023-03-08T05:01:33.354Z,61.61
2023-03-08T05:02:33.700Z,61.66
2023-03-08T05:03:33.085Z,62.80
2023-03-08T05:04:33.041Z,64.25
2023-03-08T05:05:32.836Z,68.52
2023-03-08T05:06:32.695Z,67.05
2023-03-08T05:07:32.572Z,64.76
2023-03-08T05:08:32.442Z,64.26
2023-03-08T05:09:32.297Z,67.53
2023-03-08T05:10:32.191Z,70.58
2023-03-08T05:11:32.038Z,74.60
2023-03-08T05:12:31.904Z,64.37
2023-03-08T05:13:31.792Z,59.04
2023-03-08T05:14:31.654Z,62.17
2023-03-08T05:15:31.514Z,70.04
2023-03-08T05:16:31.428Z,67.33
2023-03-08T05:17:31.247Z,68.66
2023-03-08T05:18:31.145Z,60.95
2023-03-08T05:19:30.984Z,66.48
2023-03-08T05:20:30.860Z,65.25
2023-03-08T05:21:30.736Z,68.48
2023-03-08T05:22:30.604Z,68.91
2023-03-08T05:23:30.467Z,71.13
2023-03-08T05:24:30.340Z,68.37
2023-03-08T05:25:30.213Z,69.24
2023-03-08T05:26:30.071Z,70.51
2023-03-08T05:27:29.932Z,73.07
2023-03-08T05:28:29.871Z,71.73
2023-03-08T05:29:29.694Z,65.34
2023-03-08T05:30:29.544Z,66.56
2023-03-08T05:31:29.430Z,66.87
2023-03-08T05:32:29.316Z,72.48
2023-03-08T05:33:29.141Z,72.74
2023-03-08T05:34:29.022Z,65.49
2023-03-08T05:35:28.899Z,66.14
2023-03-08T05:36:28.753Z,59.10
2023-03-08T05:37:28.629Z,65.85
2023-03-08T05:38:28.479Z,63.00
2023-03-08T05:39:28.350Z,68.46
2023-03-08T05:40:28.231Z,66.10
2023-03-08T05:41:28.105Z,63.08
2023-03-08T06:43:19.968Z,123.16
2023-03-08T06:45:19.719Z,137.13
2023-03-08T06:46:19.608Z,142.63
2023-03-08T06:47:19.438Z,147.70
2023-03-08T06:48:19.298Z,157.10
2023-03-08T06:49:19.162Z,167.34
2023-03-08T06:50:19.026Z,172.73
2023-03-08T06:51:18.900Z,174.07
2023-03-08T06:52:18.782Z,185.86
2023-03-08T06:53:18.688Z,186.27
2023-03-08T06:54:18.512Z,188.71
2023-03-08T06:55:18.372Z,195.01
2023-03-08T06:56:18.306Z,207.57
2023-03-08T06:57:18.128Z,226.36
2023-03-08T07:28:13.854Z,249.84
2023-03-08T07:29:13.728Z,248.70
2023-03-08T07:30:13.585Z,248.41
2023-03-08T07:31:13.420Z,248.89
2023-03-08T07:32:13.453Z,250.00
2023-03-08T07:33:13.198Z,248.67
2023-03-08T07:34:13.003Z,249.58
2023-03-08T07:35:12.871Z,249.05
2023-03-08T07:36:12.815Z,249.54
2023-03-08T07:37:12.605Z,249.30
2023-03-08T07:38:12.431Z,249.32
2023-03-08T07:39:12.288Z,249.33
2023-03-08T07:40:12.136Z,248.54
2023-03-08T07:41:12.001Z,249.95
2023-03-08T07:42:11.834Z,249.00
2023-03-08T07:43:11.865Z,248.39
2023-03-08T07:44:11.547Z,248.99
2023-03-08T07:45:11.475Z,248.92
2023-03-08T07:46:11.291Z,249.09
2023-03-08T07:47:11.135Z,250.78
2023-03-08T07:48:10.971Z,254.39
2023-03-08T07:49:10.949Z,260.99
2023-03-08T07:50:10.786Z,249.75
2023-03-08T07:51:10.586Z,249.90
2023-03-08T07:52:10.419Z,252.97
2023-03-08T07:53:10.314Z,258.33
2023-03-08T07:54:10.115Z,266.76
2023-03-08T07:55:09.979Z,275.95
2023-03-08T07:56:09.845Z,260.98
2023-03-08T07:57:09.698Z,248.12
2023-03-08T07:58:09.563Z,247.68
2023-03-08T07:59:09.445Z,248.59
2023-03-08T08:00:09.266Z,248.77
2023-03-08T08:01:09.111Z,249.34
2023-03-08T08:02:08.961Z,246.07
2023-03-08T08:03:08.848Z,235.29
2023-03-08T08:04:08.726Z,236.90
2023-03-08T08:05:08.706Z,238.74
2023-03-08T08:06:08.373Z,239.97
2023-03-08T08:07:08.331Z,241.43
2023-03-08T08:08:08.102Z,239.25
2023-03-08T08:10:08.782Z,235.21
2023-03-08T08:11:07.648Z,235.58
2023-03-08T08:12:07.525Z,235.77
2023-03-08T08:13:07.353Z,235.71
2023-03-08T08:14:07.204Z,224.24
2023-03-08T08:15:07.073Z,221.68
2023-03-08T08:16:07.069Z,225.43
2023-03-08T08:17:06.772Z,223.96
2023-03-08T08:18:06.630Z,228.82
2023-03-08T08:19:06.478Z,228.98
2023-03-08T08:20:06.884Z,221.74
2023-03-08T08:21:06.242Z,221.92
2023-03-08T08:22:06.071Z,222.46
2023-03-08T08:23:05.961Z,224.12
2023-03-08T08:24:05.793Z,226.33
2023-03-08T08:25:05.655Z,210.59
2023-03-08T08:26:05.494Z,210.66
2023-03-08T08:27:05.429Z,212.54
2023-03-08T08:28:05.285Z,212.16
2023-03-08T08:29:05.060Z,217.50
2023-03-08T08:30:04.920Z,221.92
2023-03-08T08:31:04.771Z,208.10
2023-03-08T08:32:04.745Z,211.19
2023-03-08T08:33:04.490Z,216.83
2023-03-08T08:34:04.349Z,219.45
2023-03-08T08:35:04.171Z,223.69
2023-03-08T08:36:04.054Z,213.21
2023-03-08T08:37:03.891Z,205.82
2023-03-08T08:38:04.471Z,205.44
2023-03-08T08:39:03.613Z,210.12
2023-03-08T08:40:03.455Z,216.58
2023-03-08T08:41:03.303Z,221.34
2023-03-08T08:42:03.174Z,221.99
2023-03-08T08:43:03.382Z,210.00
2023-03-08T08:44:02.886Z,212.20
2023-03-08T08:45:02.716Z,215.16
2023-03-08T08:46:02.618Z,216.33
2023-03-08T08:47:02.421Z,214.10
2023-03-08T08:48:02.270Z,211.21
2023-03-08T08:49:02.137Z,206.09
2023-03-08T08:50:02.931Z,208.12
2023-03-08T08:51:01.833Z,208.32
2023-03-08T08:52:01.766Z,208.87
2023-03-08T08:53:01.626Z,205.40
2023-03-08T08:54:01.425Z,203.28
2023-03-08T08:55:01.312Z,199.52
2023-03-08T08:56:01.097Z,199.06
2023-03-08T08:57:00.956Z,199.63
2023-03-08T08:58:00.823Z,197.11
2023-03-08T08:59:00.690Z,189.84
2023-03-08T09:00:00.528Z,188.02
2023-03-08T09:01:00.387Z,191.05
2023-03-08T09:02:00.306Z,191.09
2023-03-08T09:03:00.119Z,187.28
2023-03-08T09:04:00.117Z,186.49
2023-03-08T09:04:59.833Z,185.89
2023-03-08T09:05:59.682Z,181.62
2023-03-08T09:06:59.489Z,179.75
2023-03-08T09:07:59.365Z,176.89
2023-03-08T09:08:59.245Z,182.21
2023-03-08T09:09:59.128Z,177.39
2023-03-08T09:10:58.949Z,174.08
2023-03-08T09:11:58.745Z,174.26
2023-03-08T09:12:58.989Z,174.48
2023-03-08T09:13:58.462Z,174.87
2023-03-08T09:14:58.312Z,176.32
2023-03-08T09:15:58.154Z,175.24
2023-03-08T09:16:58.138Z,175.81
2023-03-08T09:17:57.883Z,177.60
2023-03-08T09:18:57.770Z,176.91
2023-03-08T09:19:57.567Z,180.63
2023-03-08T09:20:57.417Z,177.70
2023-03-08T09:21:59.128Z,177.77
2023-03-08T09:22:57.211Z,174.23
2023-03-08T09:23:56.990Z,176.19
2023-03-08T09:24:56.860Z,178.52
2023-03-08T09:25:56.685Z,177.50
2023-03-08T09:26:56.573Z,176.84
2023-03-08T09:27:56.404Z,176.65
2023-03-08T09:28:56.254Z,173.19
2023-03-08T09:29:56.187Z,173.40
2023-03-08T09:30:56.016Z,173.58
2023-03-08T09:31:57.691Z,174.28
2023-03-08T09:32:55.726Z,171.09
2023-03-08T09:33:55.628Z,171.35
2023-03-08T09:34:55.406Z,168.29
2023-03-08T09:35:55.300Z,170.64
2023-03-08T09:36:55.129Z,166.50
2023-03-08T09:37:56.515Z,166.25
2023-03-08T09:38:54.833Z,164.27
2023-03-08T09:39:54.728Z,167.02
2023-03-08T09:40:54.537Z,163.61
2023-03-08T09:41:54.424Z,163.55
2023-03-08T09:42:54.257Z,162.47
2023-03-08T09:43:54.115Z,158.83
2023-03-08T09:44:54.068Z,155.58
2023-03-08T09:45:53.866Z,150.54
2023-03-08T09:46:53.710Z,148.75
2023-03-08T09:47:53.578Z,150.48
2023-03-08T09:48:53.440Z,146.63
2023-03-08T09:49:53.240Z,141.31
2023-03-08T09:50:53.090Z,142.00
2023-03-08T09:51:52.934Z,140.06
2023-03-08T09:52:52.801Z,139.09
2023-03-08T09:53:52.662Z,138.10
2023-03-08T09:54:52.511Z,137.18
2023-03-08T09:55:52.355Z,136.94
2023-03-08T09:56:52.973Z,132.63
2023-03-08T09:57:52.133Z,133.19
2023-03-08T09:58:52.081Z,131.40
2023-03-08T09:59:51.817Z,130.57
2023-03-08T10:00:51.662Z,130.79
2023-03-08T10:01:51.486Z,129.48
2023-03-08T10:02:51.367Z,129.06
2023-03-08T10:03:51.220Z,129.11
2023-03-08T10:04:59.608Z,126.65
2023-03-08T10:05:51.892Z,129.52
2023-03-08T10:06:50.733Z,125.55
2023-03-08T10:07:50.620Z,127.97
2023-03-08T10:08:50.465Z,125.35
2023-03-08T10:09:50.314Z,124.95
2023-03-08T10:10:50.186Z,123.46
2023-03-08T10:11:50.028Z,120.59
2023-03-08T10:12:49.871Z,118.97
2023-03-08T10:13:49.727Z,119.52
2023-03-08T10:14:49.605Z,119.33
2023-03-08T10:15:49.415Z,119.41
2023-03-08T10:16:49.320Z,114.65
2023-03-08T10:17:49.118Z,114.05
2023-03-08T10:18:48.989Z,114.65
2023-03-08T10:19:48.934Z,112.87
2023-03-08T10:20:48.686Z,110.89
2023-03-08T10:21:48.540Z,114.60
2023-03-08T10:22:48.919Z,113.84
2023-03-08T10:23:48.257Z,113.60
2023-03-08T10:24:48.434Z,110.92
2023-03-08T11:01:42.856Z,179.83
2023-03-08T11:02:42.709Z,182.29
2023-03-08T11:03:42.647Z,182.59
2023-03-08T11:04:42.535Z,183.62
2023-03-08T11:05:42.280Z,186.75
2023-03-08T11:06:42.111Z,191.37
2023-03-08T11:07:41.980Z,196.23
2023-03-08T11:08:41.803Z,200.04
2023-03-08T11:09:41.801Z,200.29
2023-03-08T11:10:41.671Z,203.90
2023-03-08T11:11:41.422Z,203.29
2023-03-08T11:12:41.346Z,203.46
2023-03-08T11:13:41.141Z,204.82
2023-03-08T11:14:41.023Z,209.02
2023-03-08T11:15:40.847Z,211.59
2023-03-08T11:16:40.634Z,215.59
2023-03-08T11:17:40.494Z,212.25
2023-03-08T11:18:40.484Z,214.45
2023-03-08T11:19:40.230Z,215.15
2023-03-08T11:20:40.088Z,216.09
2023-03-08T11:21:39.923Z,218.70
2023-03-08T11:22:39.772Z,218.57
2023-03-08T11:23:40.103Z,218.77
2023-03-08T11:24:39.470Z,218.94
2023-03-08T11:25:39.319Z,219.24
2023-03-08T11:26:39.195Z,219.95
2023-03-08T11:27:39.119Z,219.07
2023-03-08T11:28:38.967Z,219.74
2023-03-08T11:29:38.732Z,221.26
2023-03-08T11:30:38.691Z,222.44
2023-03-08T11:31:38.421Z,227.61
2023-03-08T11:32:38.435Z,228.93
2023-03-08T11:33:38.255Z,229.62
2023-03-08T12:11:32.638Z,160.49
2023-03-08T12:12:32.501Z,155.26
2023-03-08T12:13:32.399Z,154.54
2023-03-08T12:14:32.229Z,156.52
2023-03-08T12:15:32.186Z,157.67
2023-03-08T12:16:32.042Z,154.72
2023-03-08T12:17:31.909Z,154.03
2023-03-08T12:18:31.672Z,150.61
2023-03-08T12:19:31.529Z,148.43
2023-03-08T12:20:31.396Z,149.59
2023-03-08T12:21:31.227Z,152.49
2023-03-08T12:22:31.150Z,150.45
2023-03-08T12:23:30.991Z,149.81
2023-03-08T12:24:30.813Z,142.74
2023-03-08T12:25:30.690Z,146.76
2023-03-08T12:26:30.626Z,141.25
2023-03-08T12:27:30.471Z,141.21
2023-03-08T12:28:30.349Z,141.37
2023-03-08T12:29:30.195Z,141.12
2023-03-08T12:30:30.060Z,137.98
2023-03-08T12:31:30.220Z,137.25
2023-03-08T12:32:29.863Z,136.82
2023-03-08T12:33:29.686Z,138.28
2023-03-08T12:34:29.427Z,131.28
2023-03-08T12:35:29.308Z,131.75
2023-03-08T12:36:29.222Z,133.76
2023-03-08T12:37:29.063Z,130.58
2023-03-08T12:38:28.893Z,131.17
2023-03-08T12:39:28.744Z,133.14
2023-03-08T12:40:28.590Z,130.83
2023-03-08T12:41:28.529Z,130.47
2023-03-08T12:42:28.295Z,131.78
2023-03-08T12:43:28.162Z,131.70
2023-03-08T12:44:28.082Z,123.64
2023-03-08T13:49:18.897Z,43.95
2023-03-08T13:50:18.753Z,41.42
2023-03-08T13:51:18.603Z,41.33
2023-03-08T13:52:18.482Z,49.33
2023-03-08T13:53:18.349Z,49.07
2023-03-08T13:54:18.228Z,40.79
2023-03-08T13:55:18.064Z,40.94
2023-03-08T13:56:18.115Z,41.94
2023-03-08T14:41:11.644Z,40.26
2023-03-08T14:48:10.624Z,45.72
2023-03-08T14:51:10.221Z,48.05
2023-03-08T14:52:10.097Z,47.73
2023-03-08T14:53:09.945Z,46.88
2023-03-08T14:54:10.023Z,40.01
2023-03-08T14:55:09.649Z,43.60
2023-03-08T14:56:09.504Z,44.98
2023-03-08T14:57:09.387Z,47.89
2023-03-08T14:58:09.235Z,50.68
2023-03-08T14:59:12.103Z,50.41
2023-03-08T15:00:09.966Z,50.46
2023-03-08T15:01:08.844Z,50.66
2023-03-08T15:02:08.893Z,51.32
2023-03-08T15:03:08.540Z,49.06
2023-03-08T15:04:08.483Z,49.72
2023-03-08T15:05:08.273Z,51.35
2023-03-08T15:06:08.170Z,50.97
2023-03-08T16:08:59.460Z,40.84
2023-03-08T16:09:59.324Z,35.06
2023-03-08T16:10:59.192Z,32.83
2023-03-08T16:11:59.080Z,38.25
2023-03-08T16:12:58.935Z,33.02
2023-03-08T16:13:58.805Z,37.02
2023-03-08T16:14:58.762Z,38.10
2023-03-08T16:15:58.530Z,37.46
2023-03-08T16:16:58.426Z,40.31
2023-03-08T16:17:58.277Z,44.36
2023-03-08T16:18:58.185Z,41.92
2023-03-08T16:19:58.018Z,35.67
2023-03-08T16:20:57.868Z,28.37
2023-03-08T16:21:57.742Z,27.46
2023-03-08T16:22:57.599Z,30.92
2023-03-08T16:23:57.510Z,29.85
2023-03-08T16:24:57.367Z,25.04
2023-03-08T16:26:08.601Z,26.10
2023-03-08T16:26:58.062Z,25.98
2023-03-08T16:27:56.929Z,26.36
2023-03-08T16:28:56.795Z,27.92
2023-03-08T16:29:56.660Z,27.30
2023-03-08T16:30:56.520Z,21.05
2023-03-08T16:31:56.482Z,31.27
2023-03-08T16:32:56.255Z,35.01
2023-03-08T16:33:56.124Z,28.14
2023-03-08T16:34:55.973Z,29.94
2023-03-08T16:35:55.927Z,34.81
2023-03-08T16:36:55.701Z,38.95
2023-03-08T16:37:55.558Z,38.11
2023-03-08T16:38:56.631Z,28.95
2023-03-08T16:39:55.296Z,31.72
2023-03-08T16:41:06.296Z,30.80
2023-03-08T16:41:56.009Z,30.09
2023-03-08T16:42:54.857Z,27.40
2023-03-08T16:43:54.729Z,26.66
2023-03-08T16:44:54.588Z,24.44
2023-03-08T16:45:54.478Z,27.02
2023-03-08T16:46:54.298Z,33.05
2023-03-08T16:47:54.164Z,35.81
2023-03-08T16:48:54.034Z,30.38
2023-03-08T16:49:53.902Z,28.98
2023-03-08T16:50:53.760Z,32.52
2023-03-08T16:51:53.609Z,28.61
2023-03-08T16:52:53.466Z,34.58
2023-03-08T16:53:53.338Z,34.14
2023-03-08T16:54:53.188Z,29.25
2023-03-08T16:55:53.063Z,29.46
2023-03-08T16:56:52.896Z,36.05
2023-03-08T16:57:52.753Z,37.12
2023-03-08T16:58:52.616Z,35.33
2023-03-08T16:59:52.477Z,37.47
2023-03-08T17:00:52.341Z,40.86
2023-03-08T17:01:52.212Z,40.81
2023-03-08T17:02:52.122Z,43.76
2023-03-08T17:03:51.909Z,45.28
2023-03-08T17:04:51.792Z,44.65
2023-03-08T17:05:51.632Z,44.60
2023-03-08T17:06:51.496Z,45.87
2023-03-08T17:07:51.362Z,44.54
2023-03-08T17:08:51.209Z,46.14
2023-03-08T17:09:51.075Z,46.36
2023-03-08T17:10:50.979Z,44.23
2023-03-08T17:11:50.797Z,45.12
2023-03-08T17:12:50.657Z,37.04
2023-03-08T17:13:50.526Z,41.65
2023-03-08T17:14:50.407Z,42.33
2023-03-08T17:15:50.289Z,43.06
2023-03-08T17:16:50.121Z,44.38
2023-03-08T17:17:49.998Z,43.35
2023-03-08T17:18:49.881Z,44.36
2023-03-08T17:19:49.700Z,46.93
2023-03-08T17:20:49.558Z,45.64
2023-03-08T17:21:49.431Z,44.46
2023-03-08T17:22:49.286Z,46.34
2023-03-08T17:23:49.156Z,43.54
2023-03-08T17:24:49.019Z,45.43
2023-03-08T17:25:48.880Z,45.03
2023-03-08T17:26:48.761Z,44.29
2023-03-08T17:27:48.597Z,43.13
2023-03-08T17:28:48.464Z,44.50
2023-03-08T17:29:48.327Z,46.24
2023-03-08T17:30:48.213Z,47.29
2023-03-08T17:31:48.049Z,47.65
2023-03-08T17:32:47.888Z,47.32
2023-03-08T17:33:47.735Z,45.97
2023-03-08T17:34:47.584Z,47.00
2023-03-08T17:35:47.511Z,44.99
2023-03-08T17:36:47.331Z,46.67
2023-03-08T17:37:47.167Z,45.89
2023-03-08T17:38:46.998Z,46.68
2023-03-08T17:39:46.886Z,35.96
2023-03-08T17:40:46.713Z,40.23
2023-03-08T17:41:46.576Z,38.36
2023-03-08T17:42:46.411Z,40.50
2023-03-08T17:43:46.275Z,39.90
2023-03-08T17:44:46.117Z,40.52
2023-03-08T17:45:45.974Z,39.64
2023-03-08T17:46:45.835Z,41.70
2023-03-08T17:47:45.683Z,39.33
2023-03-08T17:48:45.531Z,26.52
2023-03-08T17:49:45.390Z,26.82
2023-03-08T17:50:45.237Z,27.94
2023-03-08T17:51:45.091Z,29.35
2023-03-08T17:52:44.952Z,31.94
2023-03-08T17:53:44.821Z,36.76
2023-03-08T17:54:44.657Z,37.94
2023-03-08T17:55:44.564Z,36.79
2023-03-08T17:56:44.357Z,38.57
2023-03-08T17:57:44.211Z,40.93
2023-03-08T17:58:44.054Z,39.98
2023-03-08T17:59:43.909Z,37.10
2023-03-08T18:00:43.771Z,38.78
2023-03-08T18:01:43.627Z,37.38
2023-03-08T18:02:43.515Z,38.25
2023-03-08T18:03:43.355Z,37.21
2023-03-08T18:04:43.271Z,36.44
2023-03-08T18:05:43.055Z,35.27
2023-03-08T18:06:42.924Z,34.74
2023-03-08T18:07:42.761Z,35.97
2023-03-08T18:08:42.606Z,36.95
2023-03-08T18:09:42.465Z,35.17
2023-03-08T18:10:42.332Z,36.08
2023-03-08T18:11:42.197Z,33.99
2023-03-08T18:12:42.031Z,33.15
2023-03-08T18:13:41.896Z,32.00
2023-03-08T18:14:41.758Z,34.15
2023-03-08T18:15:41.635Z,30.33
2023-03-08T18:16:41.470Z,28.63
2023-03-08T18:17:41.337Z,27.30